Time;durP1;ratioP1;P1;durP2;ratioP2;P2;SDS_P1;SDS_P2;PMS_P1;PMS_P2;Temp;Humidity;BMP_temperature;BMP_pressure;BME280_temperature;BME280_humidity;BME280_pressure;Samples;Min_cycle;Max_cycle;Signal;HPM_P1;HPM_P2
2022/11/21 00:01:41;;;;;;;2.08;0.68;;;;;;;4.61;100.00;97982.94;5018033;28;20054;-81
2022/11/21 00:04:06;;;;;;;2.63;0.75;;;;;;;4.34;100.00;97938.06;5002550;28;20033;-79
2022/11/21 00:06:31;;;;;;;1.48;0.50;;;;;;;4.29;100.00;97911.00;5002465;28;20041;-78
2022/11/21 00:08:56;;;;;;;5.47;0.70;;;;;;;4.48;100.00;97929.19;5006365;28;20022;-79
2022/11/21 00:11:22;;;;;;;1.13;0.50;;;;;;;4.78;100.00;97972.84;5000769;28;20350;-78
2022/11/21 00:13:47;;;;;;;0.95;0.45;;;;;;;4.70;100.00;97953.38;4998971;28;20031;-78
2022/11/21 00:16:14;;;;;;;1.75;0.60;;;;;;;4.80;100.00;97970.00;5000909;28;20105;-79
2022/11/21 00:18:41;;;;;;;1.15;0.50;;;;;;;4.69;100.00;97952.53;5003572;28;20022;-78
2022/11/21 00:21:09;;;;;;;1.95;0.22;;;;;;;4.43;100.00;97918.22;5006978;28;20545;-79
2022/11/21 00:23:34;;;;;;;1.85;0.35;;;;;;;4.73;100.00;97958.34;4999391;28;20056;-80
2022/11/21 00:26:04;;;;;;;0.70;0.40;;;;;;;4.48;100.00;97912.28;5001830;28;20022;-79
2022/11/21 00:28:29;;;;;;;;;;;;;;;4.79;100.00;97976.34;5006023;28;20022;-79
2022/11/21 00:30:54;;;;;;;0.47;0.10;;;;;;;4.56;100.00;97930.94;5008773;28;19952;-80
2022/11/21 00:33:19;;;;;;;0.20;0.20;;;;;;;4.40;100.00;97910.53;5004643;28;20022;-80
2022/11/21 00:35:45;;;;;;;0.55;0.30;;;;;;;4.63;100.00;97942.56;5004807;28;20037;-80
2022/11/21 00:38:10;;;;;;;2.85;0.60;;;;;;;4.47;100.00;97916.81;5004028;28;20026;-79
2022/11/21 00:40:35;;;;;;;1.45;0.30;;;;;;;4.51;100.00;97911.94;5002023;28;20022;-80
2022/11/21 00:43:00;;;;;;;1.25;0.20;;;;;;;4.55;100.00;97910.50;4999934;28;20026;-81
2022/11/21 00:45:26;;;;;;;1.10;0.30;;;;;;;4.49;100.00;97893.34;4993366;28;20044;-80
2022/11/21 00:47:51;;;;;;;0.10;0.10;;;;;;;4.30;100.00;97853.78;5002239;28;20026;-79
2022/11/21 00:50:16;;;;;;;1.85;0.60;;;;;;;4.35;100.00;97862.91;5000177;28;20037;-83
2022/11/21 00:52:42;;;;;;;0.57;0.30;;;;;;;4.56;100.00;97891.59;5002170;28;20121;-82
2022/11/21 00:55:07;;;;;;;1.05;0.40;;;;;;;4.44;100.00;97863.63;5001154;28;20026;-79
2022/11/21 00:57:33;;;;;;;2.92;0.73;;;;;;;4.64;100.00;97900.50;4999262;28;20022;-80
2022/11/21 00:59:58;;;;;;;0.80;0.20;;;;;;;4.90;100.00;97935.69;4990228;28;20022;-79
2022/11/21 01:02:23;;;;;;;2.28;0.32;;;;;;;4.63;100.00;97880.94;5001111;28;20018;-80
2022/11/21 01:04:48;;;;;;;1.85;0.43;;;;;;;4.70;100.00;97887.22;4993833;28;20023;-80
2022/11/21 01:07:14;;;;;;;2.80;0.30;;;;;;;4.45;100.00;97849.19;5005747;28;20018;-81
2022/11/21 01:09:39;;;;;;;2.53;0.65;;;;;;;4.52;100.00;97870.72;5002139;28;20029;-80
2022/11/21 01:12:05;;;;;;;0.80;0.38;;;;;;;4.70;100.00;97897.09;5008755;28;20054;-80
2022/11/21 01:14:30;;;;;;;0.90;0.30;;;;;;;4.53;100.00;97886.63;5003917;28;20010;-80
2022/11/21 01:16:55;;;;;;;4.75;0.40;;;;;;;4.47;100.00;97883.84;5001914;28;20026;-78
2022/11/21 01:19:21;;;;;;;0.68;0.40;;;;;;;4.44;100.00;97885.03;5001475;28;20041;-79
2022/11/21 01:21:46;;;;;;;3.78;0.50;;;;;;;4.63;100.00;97910.41;5005504;28;20023;-81
2022/11/21 01:24:12;;;;;;;2.15;0.50;;;;;;;4.37;100.00;97862.69;5001074;28;20115;-81
2022/11/21 01:26:37;;;;;;;2.45;0.20;;;;;;;4.50;100.00;97878.94;5002590;28;20041;-81
2022/11/21 01:29:03;;;;;;;2.28;0.25;;;;;;;4.81;100.00;97915.38;5001963;28;20109;-80
2022/11/21 01:31:29;;;;;;;0.63;0.25;;;;;;;4.65;100.00;97896.84;5004378;28;20558;-80
2022/11/21 01:33:59;;;;;;;0.50;0.20;;;;;;;4.70;100.00;97905.16;4991329;28;20032;-82
2022/11/21 01:36:30;;;;;;;0.73;0.30;;;;;;;4.61;100.00;97897.22;4998168;28;20034;-81
2022/11/21 01:38:58;;;;;;;2.42;0.30;;;;;;;4.53;100.00;97877.72;4998364;28;20022;-81
2022/11/21 01:41:28;;;;;;;0.93;0.30;;;;;;;4.89;100.00;97934.00;5000421;28;20030;-80
2022/11/21 01:43:54;;;;;;;0.55;0.20;;;;;;;4.72;100.00;97908.47;5003501;28;20026;-82
2022/11/21 01:46:21;;;;;;;1.95;0.20;;;;;;;4.90;100.00;97927.66;4993236;28;20033;-80
2022/11/21 01:49:06;;;;;;;0.63;0.45;;;;;;;4.78;100.00;97926.47;4989725;28;20088;-78
2022/11/21 01:51:37;;;;;;;1.90;0.30;;;;;;;4.31;100.00;97880.34;4997964;28;20035;-77
2022/11/21 01:54:29;;;;;;;0.77;0.30;;;;;;;4.58;100.00;97935.09;4995799;28;20030;-78
2022/11/21 01:57:05;;;;;;;1.25;0.15;;;;;;;4.45;100.00;97934.91;4989304;28;20033;-80
2022/11/21 01:59:51;;;;;;;0.85;0.40;;;;;;;4.33;100.00;97926.53;5000413;28;20029;-79
2022/11/21 02:02:20;;;;;;;1.30;0.35;;;;;;;4.25;100.00;97931.16;5000167;28;20026;-80
2022/11/21 02:04:47;;;;;;;5.07;0.50;;;;;;;4.36;100.00;97939.53;4997944;28;20441;-81
2022/11/21 02:07:16;;;;;;;2.17;0.60;;;;;;;4.40;100.00;97942.66;4992160;28;20036;-80
2022/11/21 02:09:45;;;;;;;2.95;0.30;;;;;;;4.43;100.00;97936.97;5011500;28;20022;-78
2022/11/21 02:12:17;;;;;;;2.80;0.40;;;;;;;4.27;100.00;97929.94;5002571;28;20117;-79
2022/11/21 02:14:43;;;;;;;4.40;0.65;;;;;;;3.96;100.00;97887.28;5012866;28;20041;-78
2022/11/21 02:17:09;;;;;;;2.10;0.35;;;;;;;4.12;100.00;97940.63;4998134;28;20037;-78
2022/11/21 02:19:56;;;;;;;3.85;0.70;;;;;;;4.24;100.00;97957.06;5003411;28;20080;-79
2022/11/21 02:22:39;;;;;;;2.00;0.45;;;;;;;4.21;100.00;97951.25;5003050;28;20026;-79
2022/11/21 02:25:13;;;;;;;2.85;0.52;;;;;;;4.21;100.00;97956.59;5000385;28;20113;-79
2022/11/21 02:27:39;;;;;;;4.38;0.40;;;;;;;4.08;100.00;97923.28;5000966;28;20045;-81
2022/11/21 02:30:07;;;;;;;3.83;0.85;;;;;;;4.03;100.00;97935.53;5002703;28;20037;-78
2022/11/21 02:32:39;;;;;;;2.83;0.50;;;;;;;3.80;100.00;97900.81;5004768;28;20034;-79
2022/11/21 02:35:05;;;;;;;3.72;0.55;;;;;;;4.08;100.00;97952.72;4999491;28;20038;-81
2022/11/21 02:37:32;;;;;;;4.82;0.80;;;;;;;3.57;100.00;97863.44;5000162;28;20018;-78
2022/11/21 02:40:02;;;;;;;7.65;0.68;;;;;;;3.81;100.00;97911.34;5003446;28;20117;-78
2022/11/21 02:42:42;;;;;;;4.22;0.60;;;;;;;3.93;100.00;97919.78;5003798;28;20049;-80
2022/11/21 02:45:19;;;;;;;0.90;0.60;;;;;;;3.92;100.00;97904.72;4999872;28;20090;-81
2022/11/21 02:47:49;;;;;;;1.20;0.77;;;;;;;3.79;100.00;97899.16;5000862;28;20122;-79
2022/11/21 02:50:22;;;;;;;3.25;0.70;;;;;;;4.03;100.00;97933.69;5003245;28;20028;-79
2022/11/21 02:52:48;;;;;;;6.30;0.70;;;;;;;3.74;100.00;97897.84;4999609;28;20030;-80
2022/11/21 02:55:14;;;;;;;1.42;0.75;;;;;;;3.74;100.00;97895.19;5001716;28;20641;-80
2022/11/21 02:57:40;;;;;;;1.67;0.70;;;;;;;3.47;100.00;97855.69;5001465;28;20028;-78
2022/11/21 03:00:06;;;;;;;2.17;0.85;;;;;;;3.56;100.00;97865.25;4992685;28;20050;-78
2022/11/21 03:02:32;;;;;;;5.15;1.10;;;;;;;3.80;100.00;97908.84;4989829;28;20089;-78
2022/11/21 03:04:57;;;;;;;1.33;0.50;;;;;;;3.54;100.00;97870.00;4997209;28;20472;-78
2022/11/21 03:07:22;;;;;;;2.65;0.77;;;;;;;3.68;100.00;97889.75;4998407;28;20048;-78
2022/11/21 03:09:48;;;;;;;3.35;0.80;;;;;;;3.59;100.00;97878.31;4999477;28;20038;-78
2022/11/21 03:12:13;;;;;;;5.05;0.88;;;;;;;3.70;100.00;97883.19;5002024;28;20022;-78
2022/11/21 03:14:38;;;;;;;3.42;0.95;;;;;;;3.65;100.00;97885.59;5003695;28;20026;-78
2022/11/21 03:17:04;;;;;;;2.33;0.75;;;;;;;3.66;100.00;97879.22;5006395;28;20571;-78
2022/11/21 03:19:29;;;;;;;2.85;0.60;;;;;;;3.41;100.00;97835.03;5003295;28;20057;-78
2022/11/21 03:21:55;;;;;;;4.57;0.60;;;;;;;3.86;100.00;97908.13;5001689;28;20022;-79
2022/11/21 03:24:20;;;;;;;2.05;0.68;;;;;;;3.50;100.00;97857.97;5006201;28;20018;-78
2022/11/21 03:26:46;;;;;;;2.50;0.40;;;;;;;3.73;100.00;97898.88;4997387;28;20109;-78
2022/11/21 03:29:11;;;;;;;3.70;0.75;;;;;;;3.51;100.00;97852.47;5004073;28;20033;-78
2022/11/21 03:31:36;;;;;;;3.58;0.85;;;;;;;3.43;100.00;97846.34;5006681;28;20018;-78
2022/11/21 03:34:02;;;;;;;1.95;0.50;;;;;;;3.46;100.00;97857.53;5006894;28;20570;-78
2022/11/21 03:36:28;;;;;;;0.65;0.30;;;;;;;3.56;100.00;97870.63;5005533;28;20030;-78
2022/11/21 03:38:56;;;;;;;2.22;0.50;;;;;;;3.81;100.00;97913.19;5003688;28;20033;-77
2022/11/21 03:41:28;;;;;;;1.50;0.47;;;;;;;3.71;100.00;97902.75;5004944;28;20102;-78
2022/11/21 03:44:02;;;;;;;0.30;0.30;;;;;;;3.68;100.00;97890.56;5011009;28;20065;-78
2022/11/21 03:46:30;;;;;;;0.65;0.43;;;;;;;3.49;100.00;97857.16;5003804;28;20575;-77
2022/11/21 03:48:55;;;;;;;0.73;0.38;;;;;;;3.44;100.00;97854.19;4994180;28;20026;-78
2022/11/21 03:51:21;;;;;;;3.72;0.75;;;;;;;3.20;100.00;97828.53;5007514;28;20102;-78
2022/11/21 03:53:46;;;;;;;1.45;0.73;;;;;;;3.70;100.00;97893.91;5005501;28;20130;-78
2022/11/21 03:56:11;;;;;;;2.15;0.52;;;;;;;3.58;100.00;97873.94;4984593;28;20058;-77
2022/11/21 03:58:37;;;;;;;6.72;0.50;;;;;;;3.37;100.00;97844.41;4995907;28;20026;-78
2022/11/21 04:01:03;;;;;;;2.25;0.40;;;;;;;3.63;100.00;97892.97;4989159;28;20019;-78
2022/11/21 04:03:28;;;;;;;1.55;0.40;;;;;;;3.64;100.00;97889.28;4998614;28;20022;-78
2022/11/21 04:05:59;;;;;;;0.70;0.40;;;;;;;3.59;100.00;97882.78;4999200;28;20037;-77
2022/11/21 04:08:25;;;;;;;1.48;0.43;;;;;;;3.37;100.00;97855.09;4998601;28;20074;-78
2022/11/21 04:10:51;;;;;;;0.65;0.20;;;;;;;3.58;100.00;97879.28;4998686;28;20061;-77
2022/11/21 04:13:17;;;;;;;5.68;2.28;;;;;;;3.63;100.00;97876.91;4996706;28;20129;-77
2022/11/21 04:15:43;;;;;;;1.90;1.00;;;;;;;3.36;100.00;97842.75;4995540;28;20061;-78
2022/11/21 04:18:09;;;;;;;1.67;0.85;;;;;;;3.47;100.00;97858.34;4992114;28;20030;-78
2022/11/21 04:20:35;;;;;;;0.80;0.60;;;;;;;3.59;100.00;97880.97;4992133;28;20031;-78
2022/11/21 04:23:00;;;;;;;1.50;0.70;;;;;;;3.37;100.00;97849.75;4991761;28;20019;-79
2022/11/21 04:25:26;;;;;;;0.90;0.70;;;;;;;3.50;100.00;97871.34;4977030;28;20026;-78
2022/11/21 04:27:55;;;;;;;1.08;0.60;;;;;;;3.54;100.00;97867.31;4994824;28;20030;-77
2022/11/21 04:30:20;;;;;;;;;;;;;;;3.66;100.00;97887.22;4995524;28;20583;-77
2022/11/21 04:32:46;;;;;;;1.30;0.70;;;;;;;3.54;100.00;97861.09;4995626;28;20003;-77
2022/11/21 04:35:11;;;;;;;1.67;0.50;;;;;;;3.60;100.00;97865.75;4995586;28;20030;-75
2022/11/21 04:37:39;;;;;;;2.25;0.40;;;;;;;3.58;100.00;97870.44;4995625;28;20034;-77
2022/11/21 04:40:05;;;;;;;0.90;0.30;;;;;;;3.67;100.00;97874.72;4999031;28;20018;-74
2022/11/21 04:46:52;;;;;;;0.32;0.28;;;;;;;3.77;100.00;97885.13;5013332;28;20069;-85
2022/11/21 04:53:03;;;;;;;2.42;1.23;;;;;;;3.73;100.00;97874.81;5005979;28;20093;-84
2022/11/21 04:55:30;;;;;;;2.35;0.55;;;;;;;3.21;100.00;97803.44;4999606;28;20053;-80
2022/11/21 05:15:07;;;;;;;4.03;1.38;;;;;;;3.94;100.00;97897.34;5018839;28;20033;-85
2022/11/21 05:19:18;;;;;;;4.30;0.80;;;;;;;4.05;100.00;97906.75;5130271;27;20153;-64
2022/11/21 05:21:43;;;;;;;5.43;0.80;;;;;;;4.15;100.00;97907.31;5110872;28;20035;-65
2022/11/21 05:24:09;;;;;;;3.92;0.85;;;;;;;4.29;100.00;97921.72;5097928;28;20035;-64
2022/11/21 05:26:34;;;;;;;4.35;1.27;;;;;;;4.38;100.00;97912.59;5087355;28;20023;-62
2022/11/21 05:29:00;;;;;;;7.50;1.00;;;;;;;4.47;100.00;97905.28;5102079;28;20122;-62
2022/11/21 05:31:25;;;;;;;3.45;0.77;;;;;;;4.46;100.00;97906.28;5095651;28;20016;-62
2022/11/21 05:33:51;;;;;;;4.57;0.98;;;;;;;4.47;100.00;97894.56;5091247;28;20544;-62
2022/11/21 05:36:16;;;;;;;1.08;0.85;;;;;;;4.44;100.00;97886.91;5099193;28;20024;-62
2022/11/21 05:38:41;;;;;;;5.65;1.30;;;;;;;4.37;100.00;97878.75;5087513;28;20024;-63
2022/11/21 05:41:07;;;;;;;2.75;0.95;;;;;;;4.41;100.00;97892.63;5094048;28;20030;-63
2022/11/21 05:43:45;;;;;;;3.97;1.67;;;;;;;4.38;100.00;97891.16;5094564;28;20035;-63
2022/11/21 05:46:12;;;;;;;4.60;0.90;;;;;;;4.41;100.00;97900.66;5088695;28;20083;-63
2022/11/21 05:48:37;;;;;;;5.18;1.10;;;;;;;4.38;100.00;97908.06;5090118;28;20475;-62
2022/11/21 05:51:03;;;;;;;2.17;0.73;;;;;;;4.39;100.00;97904.34;5092611;28;20028;-64
2022/11/21 05:53:29;;;;;;;3.35;1.10;;;;;;;4.41;100.00;97914.88;5095617;28;20121;-62
2022/11/21 05:55:54;;;;;;;4.22;1.05;;;;;;;4.42;100.00;97913.84;5083510;28;20016;-63
2022/11/21 05:58:20;;;;;;;2.30;1.10;;;;;;;4.44;100.00;97911.00;5088636;28;20038;-63
2022/11/21 06:00:45;;;;;;;4.47;1.23;;;;;;;4.44;100.00;97916.34;5107527;28;20375;-63
2022/11/21 06:03:26;;;;;;;4.53;1.25;;;;;;;4.47;100.00;97913.31;5091123;28;20129;-63
2022/11/21 06:06:05;;;;;;;7.22;1.60;;;;;;;4.50;100.00;97921.78;5085414;28;20066;-64
2022/11/21 06:08:39;;;;;;;8.57;1.92;;;;;;;4.49;100.00;97919.31;5082358;28;21337;-64
2022/11/21 06:11:06;;;;;;;4.63;1.70;;;;;;;4.56;100.00;97920.22;5093914;28;20035;-64
2022/11/21 06:13:32;;;;;;;3.63;1.48;;;;;;;4.56;100.00;97915.69;5088240;28;20055;-64
2022/11/21 06:16:00;;;;;;;3.85;1.58;;;;;;;4.57;100.00;97922.72;5090223;28;20487;-63
2022/11/21 06:18:27;;;;;;;4.03;1.60;;;;;;;4.58;100.00;97907.47;5080242;28;20039;-64
2022/11/21 06:20:53;;;;;;;2.60;1.42;;;;;;;4.63;100.00;97905.06;5088851;28;20028;-63
2022/11/21 06:23:19;;;;;;;7.07;1.55;;;;;;;4.63;100.00;97918.44;5090298;28;20031;-64
2022/11/21 06:25:44;;;;;;;4.63;1.50;;;;;;;4.64;100.00;97911.22;5093503;28;20114;-64
2022/11/21 06:28:10;;;;;;;7.97;2.55;;;;;;;4.68;100.00;97912.53;5086471;28;20475;-64
2022/11/21 06:30:37;;;;;;;3.00;1.63;;;;;;;4.69;100.00;97908.81;5075934;28;20107;-64
2022/11/21 06:33:04;;;;;;;3.65;1.67;;;;;;;4.66;100.00;97909.19;5084718;28;20485;-64
2022/11/21 06:35:30;;;;;;;5.93;1.63;;;;;;;4.69;100.00;97912.34;5076854;28;20130;-64
2022/11/21 06:37:57;;;;;;;9.43;1.85;;;;;;;4.70;100.00;97922.03;5082996;28;20024;-63
2022/11/21 06:40:23;;;;;;;10.30;1.30;;;;;;;4.71;100.00;97912.16;5074384;28;20019;-64
2022/11/21 06:42:48;;;;;;;5.10;1.65;;;;;;;4.73;100.00;97907.44;5076379;28;20480;-63
2022/11/21 06:45:14;;;;;;;3.65;1.20;;;;;;;4.71;100.00;97917.50;5078138;28;20027;-63
2022/11/21 06:47:39;;;;;;;4.10;1.40;;;;;;;4.77;100.00;97911.41;5077144;28;20028;-64
2022/11/21 06:50:05;;;;;;;3.22;1.13;;;;;;;4.76;100.00;97915.91;5079065;28;20536;-65
2022/11/21 06:52:34;;;;;;;13.80;1.70;;;;;;;4.74;100.00;97915.31;5079085;28;20054;-65
2022/11/21 06:55:00;;;;;;;5.65;1.52;;;;;;;4.72;100.00;97911.97;5079842;28;20470;-62
2022/11/21 06:57:25;;;;;;;6.38;1.48;;;;;;;4.71;100.00;97917.50;5077401;28;20054;-62
2022/11/21 06:59:51;;;;;;;4.13;1.50;;;;;;;4.71;100.00;97923.69;5068726;28;20112;-62
2022/11/21 07:02:16;;;;;;;5.68;1.50;;;;;;;4.71;100.00;97915.66;5080239;28;20024;-63
2022/11/21 07:04:42;;;;;;;2.92;1.20;;;;;;;4.65;100.00;97905.69;5079689;28;20031;-63
2022/11/21 07:07:08;;;;;;;8.50;1.20;;;;;;;4.71;100.00;97920.19;5080153;28;20075;-63
2022/11/21 07:09:34;;;;;;;7.03;1.25;;;;;;;4.68;100.00;97912.53;5074394;28;20036;-64
2022/11/21 07:14:46;;;;;;;9.27;1.67;;;;;;;4.80;100.00;97913.72;5064082;28;20028;-64
2022/11/21 07:17:12;;;;;;;6.22;1.25;;;;;;;4.78;100.00;97905.84;5074202;28;20365;-63
2022/11/21 07:19:38;;;;;;;8.90;1.73;;;;;;;4.82;100.00;97908.97;5070859;28;20125;-64
2022/11/21 07:22:04;;;;;;;12.65;1.65;;;;;;;4.86;100.00;97904.91;5083291;28;20034;-64
2022/11/21 07:24:29;;;;;;;4.43;1.13;;;;;;;4.96;100.00;97908.13;5077056;28;20108;-63
2022/11/21 07:26:55;;;;;;;8.20;2.03;;;;;;;5.15;100.00;97912.03;5071817;28;20464;-63
2022/11/21 07:29:20;;;;;;;10.30;1.15;;;;;;;5.17;100.00;97912.66;5067612;28;20027;-63
2022/11/21 07:31:46;;;;;;;7.15;1.63;;;;;;;5.07;100.00;97905.97;5073618;28;20107;-63
2022/11/21 07:34:11;;;;;;;8.68;1.75;;;;;;;5.01;100.00;97902.19;5072094;28;20035;-63
2022/11/21 07:36:36;;;;;;;6.78;1.30;;;;;;;4.98;100.00;97899.91;5090464;28;20085;-63
2022/11/21 07:39:02;;;;;;;7.93;2.55;;;;;;;5.09;100.00;97903.94;5075318;28;20379;-63
2022/11/21 07:41:27;;;;;;;10.73;1.48;;;;;;;5.33;100.00;97898.19;5074609;28;20035;-63
2022/11/21 07:43:53;;;;;;;4.43;1.35;;;;;;;5.51;100.00;97888.84;5075276;28;20023;-63
2022/11/21 07:46:18;;;;;;;4.28;1.40;;;;;;;5.63;100.00;97895.31;5068143;28;20032;-63
2022/11/21 07:48:44;;;;;;;8.18;1.73;;;;;;;5.87;100.00;97891.41;5065125;28;20031;-63
2022/11/21 07:51:09;;;;;;;7.63;1.60;;;;;;;5.99;100.00;97894.41;5072345;28;20028;-63
2022/11/21 07:53:35;;;;;;;8.32;1.20;;;;;;;6.06;100.00;97892.59;5082966;28;20468;-63
2022/11/21 07:56:01;;;;;;;3.40;0.90;;;;;;;5.82;100.00;97885.78;5079623;28;20059;-64
2022/11/21 07:58:27;;;;;;;5.60;1.15;;;;;;;5.71;100.00;97889.81;5087466;28;20024;-64
2022/11/21 08:00:52;;;;;;;6.15;1.10;;;;;;;5.44;100.00;97884.25;5077214;28;20030;-63
2022/11/21 08:03:18;;;;;;;4.70;1.20;;;;;;;5.58;100.00;97897.75;5091627;28;20028;-63
2022/11/21 08:05:44;;;;;;;4.85;1.02;;;;;;;5.51;100.00;97894.22;5070366;28;20115;-61
2022/11/21 08:08:11;;;;;;;8.45;1.13;;;;;;;5.48;100.00;97893.56;5079081;28;20027;-61
2022/11/21 08:10:39;;;;;;;3.70;1.35;;;;;;;5.58;100.00;97892.41;5075547;28;20035;-60
2022/11/21 08:13:04;;;;;;;5.00;1.10;;;;;;;5.62;100.00;97882.94;5076605;28;20031;-61
2022/11/21 08:15:30;;;;;;;8.27;1.42;;;;;;;5.81;100.00;97898.34;5073932;28;20024;-60
2022/11/21 08:17:55;;;;;;;3.85;1.00;;;;;;;5.79;100.00;97892.38;5072244;28;20028;-61
2022/11/21 08:20:20;;;;;;;6.25;0.95;;;;;;;5.91;100.00;97887.28;5067710;28;20122;-60
2022/11/21 08:22:46;;;;;;;9.25;1.60;;;;;;;6.01;100.00;97892.34;5093262;28;20064;-62
2022/11/21 08:25:11;;;;;;;4.40;0.77;;;;;;;6.17;100.00;97875.91;5091166;28;20110;-62
2022/11/21 08:27:38;;;;;;;14.20;1.05;;;;;;;6.09;100.00;97879.59;5073828;28;20047;-61
2022/11/21 08:30:06;;;;;;;5.40;1.30;;;;;;;6.11;100.00;97882.09;5082857;28;20107;-61
2022/11/21 08:32:31;;;;;;;4.72;0.85;;;;;;;6.08;100.00;97882.50;5086451;28;20024;-61
2022/11/21 08:34:56;;;;;;;8.35;1.50;;;;;;;6.25;100.00;97883.81;5071191;28;20115;-61
2022/11/21 08:37:22;;;;;;;3.70;1.15;;;;;;;6.30;100.00;97877.84;5088485;28;20439;-61
2022/11/21 08:39:47;;;;;;;13.63;1.70;;;;;;;6.28;100.00;97855.72;5075281;28;20063;-61
2022/11/21 08:42:13;;;;;;;3.78;0.90;;;;;;;6.48;100.00;97861.19;5071514;28;20418;-61
2022/11/21 08:44:38;;;;;;;2.28;0.60;;;;;;;6.49;100.00;97857.47;5073953;28;20038;-61
2022/11/21 08:47:05;;;;;;;6.55;1.23;;;;;;;6.41;100.00;97866.53;5103959;28;20052;-62
2022/11/21 08:49:31;;;;;;;8.77;1.23;;;;;;;6.33;100.00;97867.53;5068930;28;20027;-61
2022/11/21 08:51:56;;;;;;;9.45;1.00;;;;;;;6.39;100.00;97862.38;5075778;28;20027;-61
2022/11/21 08:54:23;;;;;;;5.40;1.05;;;;;;;6.61;100.00;97866.63;5076751;28;20372;-61
2022/11/21 08:56:49;;;;;;;6.72;1.23;;;;;;;6.65;100.00;97857.09;5063440;28;20123;-61
2022/11/21 08:59:15;;;;;;;5.13;0.90;;;;;;;6.65;100.00;97867.84;5069338;28;20454;-61
2022/11/21 09:01:41;;;;;;;4.22;1.30;;;;;;;6.73;100.00;97853.41;5080162;28;20058;-61
2022/11/21 09:04:07;;;;;;;3.65;1.50;;;;;;;6.72;100.00;97866.03;5083219;28;20028;-61
2022/11/21 09:06:33;;;;;;;8.27;2.20;;;;;;;6.82;100.00;97867.53;5057646;28;20034;-61
2022/11/21 09:08:58;;;;;;;6.13;1.48;;;;;;;6.93;100.00;97865.06;5083961;28;20024;-61
2022/11/21 09:11:24;;;;;;;11.57;2.90;;;;;;;7.23;100.00;97853.94;5071703;28;20058;-62
2022/11/21 09:19:22;;;;;;;6.05;1.27;;;;;;;7.99;100.00;97840.03;5086899;28;20123;-61
2022/11/21 09:21:51;;;;;;;3.50;1.55;;;;;;;8.58;100.00;97842.78;5072009;28;20063;-61
2022/11/21 09:24:16;;;;;;;9.35;1.17;;;;;;;8.85;100.00;97847.00;5078030;28;20077;-61
2022/11/21 09:26:43;;;;;;;4.07;1.10;;;;;;;8.74;100.00;97844.97;5078706;28;20024;-61
2022/11/21 09:29:13;;;;;;;3.55;0.85;;;;;;;8.83;100.00;97832.06;5067065;28;20019;-61
2022/11/21 09:31:41;;;;;;;3.80;1.20;;;;;;;8.58;100.00;97835.53;5070113;28;20031;-61
2022/11/21 09:34:06;;;;;;;5.55;1.00;;;;;;;8.38;100.00;97835.56;5073640;28;20073;-61
2022/11/21 09:36:32;;;;;;;4.10;0.93;;;;;;;8.31;100.00;97832.09;5094589;28;20031;-61
2022/11/21 09:38:57;;;;;;;5.68;1.83;;;;;;;7.98;100.00;97816.81;5065191;28;20383;-61
2022/11/21 09:41:52;;;;;;;4.97;1.20;;;;;;;7.78;100.00;97837.56;5078302;28;20064;-61
2022/11/21 09:44:26;;;;;;;4.53;1.40;;;;;;;7.07;100.00;97843.56;5071450;28;20028;-61
2022/11/21 09:47:15;;;;;;;6.65;1.75;;;;;;;7.19;100.00;97834.69;5070983;28;20031;-61
2022/11/21 09:49:45;;;;;;;11.10;3.28;;;;;;;7.54;100.00;97837.19;5072202;28;20039;-61
2022/11/21 09:52:14;;;;;;;13.40;4.10;;;;;;;7.95;100.00;97840.66;5077672;28;20051;-61
2022/11/21 09:54:56;;;;;;;5.55;2.53;;;;;;;7.98;100.00;97837.56;5070276;28;20778;-60
2022/11/21 09:57:24;;;;;;;9.20;2.58;;;;;;;7.60;100.00;97833.69;5069843;28;20032;-62
2022/11/21 09:59:51;;;;;;;7.67;1.90;;;;;;;7.58;100.00;97830.34;5077117;28;20028;-61
2022/11/21 10:02:19;;;;;;;6.20;1.52;;;;;;;7.73;100.00;97818.53;5077204;28;20379;-61
2022/11/21 10:04:46;;;;;;;8.38;1.98;;;;;;;7.68;100.00;97814.63;5077585;28;20032;-61
2022/11/21 10:07:24;;;;;;;7.18;1.40;;;;;;;7.99;100.00;97798.78;5076107;28;20472;-61
2022/11/21 10:10:20;;;;;;;4.80;1.50;;;;;;;8.26;100.00;97802.25;5074017;28;20032;-62
2022/11/21 10:13:10;;;;;;;4.47;1.80;;;;;;;8.73;100.00;97802.91;5077721;28;20031;-61
2022/11/21 10:15:57;;;;;;;5.38;0.77;;;;;;;9.47;100.00;97785.13;5074223;28;20042;-61
2022/11/21 10:18:49;;;;;;;5.40;1.35;;;;;;;12.96;100.00;97775.72;5068909;28;20549;-60
2022/11/21 10:21:14;;;;;;;7.00;1.92;;;;;;;13.11;99.75;97778.72;5072266;28;20028;-60
2022/11/21 10:23:57;;;;;;;10.07;1.42;;;;;;;11.97;100.00;97774.88;5071071;28;20363;-60
2022/11/21 10:28:55;;;;;;;5.10;1.13;;;;;;;9.75;100.00;97773.84;5151105;27;20167;-61
2022/11/21 10:31:21;;;;;;;6.20;1.17;;;;;;;9.38;100.00;97765.69;5116174;27;20039;-61
2022/11/21 10:33:50;;;;;;;4.50;0.90;;;;;;;9.32;100.00;97766.53;5122159;28;20015;-61
2022/11/21 10:36:34;;;;;;;3.67;1.20;;;;;;;9.03;100.00;97761.81;5089473;28;20391;-61
2022/11/21 10:39:06;;;;;;;4.05;0.73;;;;;;;8.48;100.00;97767.75;5093233;28;20479;-61
2022/11/21 10:41:47;;;;;;;2.95;0.70;;;;;;;8.38;100.00;97749.31;5101836;28;20387;-61
2022/11/21 10:47:33;;;;;;;2.40;0.55;;;;;;;7.58;100.00;97749.59;5107390;28;20034;-61
2022/11/21 10:50:03;;;;;;;4.43;0.80;;;;;;;7.33;100.00;97753.97;5097924;28;20027;-61
2022/11/21 10:52:33;;;;;;;2.67;0.85;;;;;;;7.21;100.00;97753.81;5094130;28;20035;-62
2022/11/21 10:55:01;;;;;;;4.57;0.70;;;;;;;7.47;100.00;97743.00;5096543;28;20380;-61
2022/11/21 10:57:30;;;;;;;1.70;0.65;;;;;;;7.58;100.00;97738.84;5090836;28;20024;-62
2022/11/21 11:00:12;;;;;;;2.65;0.57;;;;;;;7.54;100.00;97742.16;5089079;28;20019;-62
2022/11/21 11:02:39;;;;;;;2.53;0.63;;;;;;;7.68;100.00;97733.84;5095673;28;20451;-61
2022/11/21 11:05:17;;;;;;;3.30;0.73;;;;;;;7.67;100.00;97737.56;5090079;28;20463;-61
2022/11/21 11:08:06;;;;;;;4.32;0.65;;;;;;;7.32;100.00;97730.81;5096484;28;20031;-61
2022/11/21 11:10:39;;;;;;;2.80;0.50;;;;;;;7.51;100.00;97732.63;5088641;28;20031;-61
2022/11/21 11:16:03;;;;;;;3.05;0.65;;;;;;;8.71;100.00;97703.31;5098164;28;20122;-61
2022/11/21 11:18:30;;;;;;;7.28;0.93;;;;;;;10.98;100.00;97669.09;5087412;28;20437;-61
2022/11/21 11:21:09;;;;;;;3.00;0.40;;;;;;;14.78;83.74;97675.25;5083914;28;20028;-59
2022/11/21 11:23:35;;;;;;;4.53;1.30;;;;;;;18.08;64.94;97655.72;5087594;28;20352;-59
2022/11/21 11:26:00;;;;;;;3.83;1.10;;;;;;;18.92;60.71;97663.22;5092522;28;20122;-60
2022/11/21 11:28:35;;;;;;;2.45;0.82;;;;;;;19.78;55.14;97661.63;5100936;28;20027;-60
2022/11/21 11:31:00;;;;;;;3.47;0.85;;;;;;;19.60;53.17;97662.34;5098260;28;20782;-60
2022/11/21 11:33:49;;;;;;;3.70;0.60;;;;;;;19.51;52.54;97661.31;5096530;28;20085;-60
2022/11/21 11:36:17;;;;;;;2.40;0.73;;;;;;;19.80;50.97;97648.41;5099286;28;20020;-60
2022/11/21 11:38:52;;;;;;;3.13;0.50;;;;;;;21.28;49.16;97625.47;5094249;28;20036;-60
2022/11/21 11:48:10;;;;;;;2.33;0.50;;;;;;;22.24;41.98;97628.34;5093247;28;20206;-61
2022/11/21 11:50:50;;;;;;;1.85;0.70;;;;;;;21.33;43.22;97617.13;5063885;28;20047;-61
2022/11/21 11:53:39;;;;;;;1.92;0.63;;;;;;;21.36;44.47;97616.50;5084412;28;20028;-61
2022/11/21 11:56:12;;;;;;;;;;;;;;;21.63;44.36;97619.31;5086373;28;20024;-61
2022/11/21 11:59:07;;;;;;;4.60;1.00;;;;;;;20.29;46.77;97619.00;5079387;28;19916;-62
2022/11/21 12:01:44;;;;;;;2.75;0.50;;;;;;;19.39;46.81;97618.66;5050217;28;20105;-62
2022/11/21 12:04:13;;;;;;;0.93;0.50;;;;;;;19.17;46.85;97607.34;5087857;28;20334;-62
2022/11/21 12:06:44;;;;;;;;;;;;;;;19.00;47.61;97597.63;5080449;28;20042;-62
2022/11/21 12:09:21;;;;;;;2.22;0.85;;;;;;;19.78;46.62;97593.00;5080865;28;19920;-62
2022/11/21 12:12:14;;;;;;;2.25;0.80;;;;;;;20.18;46.32;97588.09;5072562;28;20042;-62
2022/11/21 12:17:42;;;;;;;3.17;0.75;;;;;;;19.23;47.34;97579.59;5084153;28;20104;-62
2022/11/21 12:20:21;;;;;;;3.17;0.70;;;;;;;18.91;46.97;97582.88;5067983;28;20039;-63
2022/11/21 12:22:50;;;;;;;2.28;0.60;;;;;;;20.84;44.74;97567.06;5064012;28;20055;-64
2022/11/21 12:25:19;;;;;;;3.63;1.25;;;;;;;20.74;44.36;97557.06;5075119;28;20028;-64
2022/11/21 12:27:49;;;;;;;5.28;0.90;;;;;;;19.83;44.50;97554.53;5082293;28;20030;-61
2022/11/21 12:30:54;;;;;;;3.97;0.70;;;;;;;19.23;46.52;97543.09;5067971;28;20472;-62
2022/11/21 12:33:21;;;;;;;2.88;0.73;;;;;;;19.56;45.79;97543.28;5067981;28;20574;-61
2022/11/21 12:35:49;;;;;;;3.22;0.57;;;;;;;19.52;46.13;97534.84;5069771;28;20035;-61